Currituck — AEFR — position and weather

sailwx.info

Track history (hours):
 
Tides and Currents Weather Stations Pressure Air Temp Water Temp Dewpoint Dewpoint Depression Visibility Wind Speed Wind Dir Waves Ship Positions

Currituck

Last reported at 2014-Aug-30 07:08 UTC. Time now 2014-Aug-30 08:30 UTC.
Position N 40°24' W 073°59'.

Length 45 m; draft 3 m.

Type: Dredging. MMSI: 369970446.

Date/timePositionNaut miles runAvg speedWind from/ knotsBaromVisibWave heightAir tempDewpointWater temp
2014-Aug-30 07:08N 40°24' W 073°59'2 0.8
2014-Aug-30 05:08N 40°26' W 073°59'3 5.3
2014-Aug-30 04:32N 40°29' W 074°01'6 2.9
2014-Aug-30 02:25N 40°23' W 073°59'1 1.1
2014-Aug-30 01:29N 40°24' W 073°59'3 2.5
2014-Aug-30 00:20N 40°26' W 074°01'2 1.1
2014-Aug-29 22:17N 40°24' W 073°59'4 1.2
2014-Aug-29 19:24N 40°28' W 073°59'3 3.5
2014-Aug-29 18:26N 40°25' W 073°60'2 1.9
2014-Aug-29 17:24N 40°23' W 073°59'6 5.9
2014-Aug-29 16:21N 40°29' W 074°00'6 2.9
2014-Aug-29 14:19N 40°23' W 073°59'6 2.0
2014-Aug-29 11:32N 40°29' W 074°01'3 1.0
2014-Aug-29 08:13N 40°26' W 073°59'3 0.8
2014-Aug-29 04:30N 40°29' W 074°00'6 2.5
2014-Aug-29 02:05N 40°23' W 073°59'6 4.0
2014-Aug-29 00:32N 40°29' W 074°00'1 0.2
2014-Aug-28 21:11N 40°29' W 074°01'1 0.3
2014-Aug-28 18:28N 40°29' W 073°60'3 1.6
2014-Aug-28 16:25N 40°26' W 074°00'1 1.6
2014-Aug-28 15:32N 40°26' W 073°59'1 1.4
2014-Aug-28 14:29N 40°26' W 074°01'3 2.9
2014-Aug-28 13:30N 40°23' W 073°60'5 4.9
2014-Aug-28 12:33N 40°27' W 074°01'1 1.3
2014-Aug-28 11:30N 40°28' W 073°60'3 3.6
2014-Aug-28 10:32N 40°25' W 074°00'1 0.9
2014-Aug-28 09:32N 40°24' W 073°59'3 2.8
2014-Aug-28 08:33N 40°27' W 073°59'3 1.2
2014-Aug-28 06:25N 40°25' W 073°60'3 0.6
2014-Aug-28 01:12N 40°22' W 073°59'0 0.0
2014-Aug-28 00:33N 40°22' W 073°59'0 0.0
2014-Aug-27 23:34N 40°22' W 073°59'3 0.7
2014-Aug-27 19:18N 40°25' W 073°60'2 1.7
2014-Aug-27 18:22N 40°23' W 073°59'2 1.6
2014-Aug-27 17:24N 40°22' W 073°59'0 0.0
2014-Aug-27 16:09N 40°22' W 073°59'0 0.0
2014-Aug-27 15:31N 40°22' W 073°59'0 0.0
2014-Aug-27 14:33N 40°22' W 073°59'0 0.0
2014-Aug-27 13:33N 40°22' W 073°59'0 0.0
2014-Aug-27 12:33N 40°22' W 073°59'0 0.0
2014-Aug-27 11:33N 40°22' W 073°59'0 0.0
2014-Aug-27 10:23N 40°22' W 073°59'0 0.0
2014-Aug-27 09:34N 40°22' W 073°59'4 4.0
2014-Aug-27 08:33N 40°25' W 074°00'2 1.6
2014-Aug-27 07:33N 40°26' W 073°59'2 2.0
2014-Aug-27 06:33N 40°25' W 073°60'2 1.7
2014-Aug-27 05:33N 40°23' W 073°60'2 1.7
2014-Aug-27 04:33N 40°25' W 073°60'3 2.5
2014-Aug-27 03:33N 40°27' W 073°59'2 1.6
2014-Aug-27 02:33N 40°27' W 074°01'4 4.1
2014-Aug-27 01:33N 40°23' W 073°60'4 3.6
2014-Aug-27 00:33N 40°26' W 074°01'2 1.5
2014-Aug-26 23:34N 40°26' W 073°59'2 1.7
2014-Aug-26 22:33N 40°27' W 074°01'3 2.9
2014-Aug-26 21:33N 40°24' W 073°59'4 2.9
2014-Aug-26 20:10N 40°28' W 074°01'3 1.8
2014-Aug-26 18:22N 40°25' W 074°00'3 3.3
2014-Aug-26 17:19N 40°28' W 074°01'1 1.2
2014-Aug-26 16:11N 40°29' W 074°00'4 6.6
2014-Aug-26 15:31N 40°25' W 073°60'1 1.0
2014-Aug-26 14:27N 40°24' W 073°59'5 5.2
2014-Aug-26 13:33N 40°28' W 073°59'2 1.4
2014-Aug-26 12:31N 40°28' W 074°01'5 5.3
2014-Aug-26 11:33N 40°23' W 073°59'1 1.0
2014-Aug-26 10:33N 40°23' W 074°00'3 3.4
2014-Aug-26 09:33N 40°26' W 074°01'2 1.7
2014-Aug-26 08:33N 40°28' W 073°59'3 2.7
2014-Aug-26 07:33N 40°25' W 074°00'2 2.0
2014-Aug-26 06:19N 40°27' W 074°01'2 3.0
2014-Aug-26 05:33N 40°26' W 073°59'2 1.5
2014-Aug-26 04:24N 40°25' W 073°60'2 1.5
2014-Aug-26 03:17N 40°23' W 073°60'1 1.4
2014-Aug-26 02:27N 40°24' W 073°59'5 2.6
2014-Aug-26 00:29N 40°29' W 074°00'1 0.1
2014-Aug-25 17:19N 40°29' W 074°01'4 2.5
2014-Aug-25 15:32N 40°24' W 073°59'2 1.6
2014-Aug-25 14:33N 40°23' W 073°59'6 5.7
2014-Aug-25 13:32N 40°29' W 073°60'1 1.3
2014-Aug-25 12:33N 40°28' W 074°01'6 5.5
2014-Aug-25 11:33N 40°23' W 073°59'1 0.7
2014-Aug-25 10:32N 40°23' W 073°60'2 1.8
2014-Aug-25 09:32N 40°25' W 074°00'4 3.2
2014-Aug-25 08:12N 40°29' W 074°00'4 5.8
2014-Aug-25 07:29N 40°25' W 074°00'1 0.7
2014-Aug-25 06:14N 40°24' W 073°59'5 6.9
2014-Aug-25 05:33N 40°29' W 074°01'0 0.2
2014-Aug-25 04:33N 40°29' W 074°01'5 4.9
2014-Aug-25 03:33N 40°24' W 073°59'1 1.3
2014-Aug-25 02:33N 40°23' W 073°59'6 6.2
2014-Aug-25 01:33N 40°29' W 074°00'0 0.2
2014-Aug-25 00:26N 40°29' W 074°01'0 0.1
2014-Aug-24 21:23N 40°29' W 074°01'0 0.0
2014-Aug-24 19:06N 40°29' W 074°01'3 3.5
2014-Aug-24 18:22N 40°27' W 073°59'1 0.3
2014-Aug-24 15:14N 40°26' W 073°59'2 2.1
2014-Aug-24 14:24N 40°27' W 074°01'2 0.7
2014-Aug-24 12:16N 40°28' W 074°01'2 1.4
2014-Aug-24 10:30N 40°26' W 074°01'2 1.9
2014-Aug-24 09:23N 40°24' W 073°59'5 6.0
2014-Aug-24 08:33N 40°29' W 074°01'1 0.6
2014-Aug-24 07:21N 40°29' W 074°00'4 5.5
2014-Aug-24 06:33N 40°25' W 073°60'2 0.7
2014-Aug-24 04:07N 40°26' W 073°59'3 1.2
2014-Aug-24 01:26N 40°23' W 073°59'6 6.3
2014-Aug-24 00:29N 40°29' W 074°01'4 0.2
2014-Aug-23 03:31N 40°25' W 073°60'2 1.4
2014-Aug-23 02:14N 40°23' W 073°59'1 1.3
2014-Aug-23 01:24N 40°24' W 073°59'4 4.3
2014-Aug-23 00:25N 40°28' W 074°01'3 3.0
2014-Aug-22 23:33N 40°26' W 073°59'2 1.4
2014-Aug-22 22:29N 40°26' W 074°00'3 1.4
2014-Aug-22 20:27N 40°23' W 073°60'6 6.5
2014-Aug-22 19:31N 40°29' W 074°00'0 0.1
2014-Aug-22 18:22N 40°29' W 074°01'2 1.2
2014-Aug-22 16:27N 40°27' W 074°01'2 1.8
2014-Aug-22 15:28N 40°26' W 073°59'2 1.5
2014-Aug-22 14:19N 40°25' W 073°60'2 1.6
2014-Aug-22 13:15N 40°23' W 073°60'6 5.8
2014-Aug-22 12:16N 40°29' W 074°01'3 3.7
2014-Aug-22 11:33N 40°27' W 073°59'2 2.3
2014-Aug-22 10:27N 40°25' W 073°60'0 0.1
2014-Aug-22 06:06N 40°25' W 074°00'2 1.1
2014-Aug-22 04:22N 40°26' W 073°59'2 2.8
2014-Aug-22 03:31N 40°28' W 074°01'4 4.5
2014-Aug-22 02:33N 40°24' W 073°59'1 1.1
2014-Aug-22 01:33N 40°23' W 073°60'5 5.3
2014-Aug-22 00:33N 40°28' W 074°01'2 1.9
2014-Aug-21 23:33N 40°28' W 073°59'3 3.0
2014-Aug-21 22:33N 40°25' W 073°60'1 1.2
2014-Aug-21 21:31N 40°24' W 073°59'1 0.7
2014-Aug-21 20:13N 40°23' W 073°59'5 2.9
2014-Aug-21 18:33N 40°28' W 073°59'3 1.5
2014-Aug-21 16:28N 40°25' W 073°60'3 3.2
2014-Aug-21 15:29N 40°22' W 073°59'0 0.0
2014-Aug-21 14:33N 40°22' W 073°59'0 0.0
2014-Aug-21 13:31N 40°22' W 073°59'0 0.0
2014-Aug-21 12:17N 40°22' W 073°59'0 0.0
2014-Aug-21 11:33N 40°22' W 073°59'0 0.0
2014-Aug-21 10:32N 40°22' W 073°59'0 0.0
2014-Aug-21 09:30N 40°22' W 073°59'0 0.0
2014-Aug-21 08:32N 40°22' W 073°59'0 0.0
2014-Aug-21 07:33N 40°22' W 073°59'0 0.0
2014-Aug-21 06:33N 40°22' W 073°59'0 0.0
2014-Aug-21 05:33N 40°22' W 073°59'0 0.0
2014-Aug-21 04:27N 40°22' W 073°59'0 0.0
2014-Aug-21 03:20N 40°22' W 073°59'0 0.0
2014-Aug-21 02:33N 40°22' W 073°59'0 0.0
2014-Aug-21 01:33N 40°22' W 073°59'0 0.0
2014-Aug-21 00:33N 40°22' W 073°59'0 0.0
2014-Aug-20 23:10N 40°22' W 073°59'0 0.0
2014-Aug-20 22:31N 40°22' W 073°59'2 1.5
2014-Aug-20 21:26N 40°23' W 073°59'5 4.7
2014-Aug-20 20:27N 40°28' W 073°59'2 1.8
2014-Aug-20 19:31N 40°29' W 074°01'4 3.6
2014-Aug-20 18:22N 40°25' W 073°60'3 0.5
2014-Aug-20 12:25N 40°22' W 073°59'0 0.0
2014-Aug-20 11:23N 40°22' W 073°59'0 0.0
2014-Aug-20 10:31N 40°22' W 073°59'0 0.2
2014-Aug-20 09:33N 40°22' W 073°59'6 5.9
2014-Aug-20 08:33N 40°27' W 074°01'2 2.3
2014-Aug-20 07:34N 40°26' W 073°59'  
Track history (hours):
 
Tides and Currents Weather Stations Pressure Air Temp Water Temp Dewpoint Dewpoint Depression Visibility Wind Speed Wind Dir Waves Ship Positions

Currituck

Last reported at 2014-Aug-30 07:08 UTC. Time now 2014-Aug-30 08:30 UTC.
Position N 40°24' W 073°59'.

Length 45 m; draft 3 m.

Type: Dredging. MMSI: 369970446.

Date/timePositionNaut miles runAvg speedWind from/ knotsBaromVisibWave heightAir tempDewpointWater temp
2014-Aug-30 07:08N 40°24' W 073°59'2 0.8
2014-Aug-30 05:08N 40°26' W 073°59'3 5.3
2014-Aug-30 04:32N 40°29' W 074°01'6 2.9
2014-Aug-30 02:25N 40°23' W 073°59'1 1.1
2014-Aug-30 01:29N 40°24' W 073°59'3 2.5
2014-Aug-30 00:20N 40°26' W 074°01'2 1.1
2014-Aug-29 22:17N 40°24' W 073°59'4 1.2
2014-Aug-29 19:24N 40°28' W 073°59'3 3.5
2014-Aug-29 18:26N 40°25' W 073°60'2 1.9
2014-Aug-29 17:24N 40°23' W 073°59'6 5.9
2014-Aug-29 16:21N 40°29' W 074°00'6 2.9
2014-Aug-29 14:19N 40°23' W 073°59'6 2.0
2014-Aug-29 11:32N 40°29' W 074°01'3 1.0
2014-Aug-29 08:13N 40°26' W 073°59'3 0.8
2014-Aug-29 04:30N 40°29' W 074°00'6 2.5
2014-Aug-29 02:05N 40°23' W 073°59'6 4.0
2014-Aug-29 00:32N 40°29' W 074°00'1 0.2
2014-Aug-28 21:11N 40°29' W 074°01'1 0.3
2014-Aug-28 18:28N 40°29' W 073°60'3 1.6
2014-Aug-28 16:25N 40°26' W 074°00'1 1.6
2014-Aug-28 15:32N 40°26' W 073°59'1 1.4
2014-Aug-28 14:29N 40°26' W 074°01'3 2.9
2014-Aug-28 13:30N 40°23' W 073°60'5 4.9
2014-Aug-28 12:33N 40°27' W 074°01'1 1.3
2014-Aug-28 11:30N 40°28' W 073°60'3 3.6
2014-Aug-28 10:32N 40°25' W 074°00'1 0.9
2014-Aug-28 09:32N 40°24' W 073°59'3 2.8
2014-Aug-28 08:33N 40°27' W 073°59'3 1.2
2014-Aug-28 06:25N 40°25' W 073°60'3 0.6
2014-Aug-28 01:12N 40°22' W 073°59'0 0.0
2014-Aug-28 00:33N 40°22' W 073°59'0 0.0
2014-Aug-27 23:34N 40°22' W 073°59'3 0.7
2014-Aug-27 19:18N 40°25' W 073°60'2 1.7
2014-Aug-27 18:22N 40°23' W 073°59'2 1.6
2014-Aug-27 17:24N 40°22' W 073°59'0 0.0
2014-Aug-27 16:09N 40°22' W 073°59'0 0.0
2014-Aug-27 15:31N 40°22' W 073°59'0 0.0
2014-Aug-27 14:33N 40°22' W 073°59'0 0.0
2014-Aug-27 13:33N 40°22' W 073°59'0 0.0
2014-Aug-27 12:33N 40°22' W 073°59'0 0.0
2014-Aug-27 11:33N 40°22' W 073°59'0 0.0
2014-Aug-27 10:23N 40°22' W 073°59'0 0.0
2014-Aug-27 09:34N 40°22' W 073°59'4 4.0
2014-Aug-27 08:33N 40°25' W 074°00'2 1.6
2014-Aug-27 07:33N 40°26' W 073°59'2 2.0
2014-Aug-27 06:33N 40°25' W 073°60'2 1.7
2014-Aug-27 05:33N 40°23' W 073°60'2 1.7
2014-Aug-27 04:33N 40°25' W 073°60'3 2.5
2014-Aug-27 03:33N 40°27' W 073°59'2 1.6
2014-Aug-27 02:33N 40°27' W 074°01'4 4.1
2014-Aug-27 01:33N 40°23' W 073°60'4 3.6
2014-Aug-27 00:33N 40°26' W 074°01'2 1.5
2014-Aug-26 23:34N 40°26' W 073°59'2 1.7
2014-Aug-26 22:33N 40°27' W 074°01'3 2.9
2014-Aug-26 21:33N 40°24' W 073°59'4 2.9
2014-Aug-26 20:10N 40°28' W 074°01'3 1.8
2014-Aug-26 18:22N 40°25' W 074°00'3 3.3
2014-Aug-26 17:19N 40°28' W 074°01'1 1.2
2014-Aug-26 16:11N 40°29' W 074°00'4 6.6
2014-Aug-26 15:31N 40°25' W 073°60'1 1.0
2014-Aug-26 14:27N 40°24' W 073°59'5 5.2
2014-Aug-26 13:33N 40°28' W 073°59'2 1.4
2014-Aug-26 12:31N 40°28' W 074°01'5 5.3
2014-Aug-26 11:33N 40°23' W 073°59'1 1.0
2014-Aug-26 10:33N 40°23' W 074°00'3 3.4
2014-Aug-26 09:33N 40°26' W 074°01'2 1.7
2014-Aug-26 08:33N 40°28' W 073°59'3 2.7
2014-Aug-26 07:33N 40°25' W 074°00'2 2.0
2014-Aug-26 06:19N 40°27' W 074°01'2 3.0
2014-Aug-26 05:33N 40°26' W 073°59'2 1.5
2014-Aug-26 04:24N 40°25' W 073°60'2 1.5
2014-Aug-26 03:17N 40°23' W 073°60'1 1.4
2014-Aug-26 02:27N 40°24' W 073°59'5 2.6
2014-Aug-26 00:29N 40°29' W 074°00'1 0.1
2014-Aug-25 17:19N 40°29' W 074°01'4 2.5
2014-Aug-25 15:32N 40°24' W 073°59'2 1.6
2014-Aug-25 14:33N 40°23' W 073°59'6 5.7
2014-Aug-25 13:32N 40°29' W 073°60'1 1.3
2014-Aug-25 12:33N 40°28' W 074°01'6 5.5
2014-Aug-25 11:33N 40°23' W 073°59'1 0.7
2014-Aug-25 10:32N 40°23' W 073°60'2 1.8
2014-Aug-25 09:32N 40°25' W 074°00'4 3.2
2014-Aug-25 08:12N 40°29' W 074°00'4 5.8
2014-Aug-25 07:29N 40°25' W 074°00'1 0.7
2014-Aug-25 06:14N 40°24' W 073°59'5 6.9
2014-Aug-25 05:33N 40°29' W 074°01'0 0.2
2014-Aug-25 04:33N 40°29' W 074°01'5 4.9
2014-Aug-25 03:33N 40°24' W 073°59'1 1.3
2014-Aug-25 02:33N 40°23' W 073°59'6 6.2
2014-Aug-25 01:33N 40°29' W 074°00'0 0.2
2014-Aug-25 00:26N 40°29' W 074°01'0 0.1
2014-Aug-24 21:23N 40°29' W 074°01'0 0.0
2014-Aug-24 19:06N 40°29' W 074°01'3 3.5
2014-Aug-24 18:22N 40°27' W 073°59'1 0.3
2014-Aug-24 15:14N 40°26' W 073°59'2 2.1
2014-Aug-24 14:24N 40°27' W 074°01'2 0.7
2014-Aug-24 12:16N 40°28' W 074°01'2 1.4
2014-Aug-24 10:30N 40°26' W 074°01'2 1.9
2014-Aug-24 09:23N 40°24' W 073°59'5 6.0
2014-Aug-24 08:33N 40°29' W 074°01'1 0.6
2014-Aug-24 07:21N 40°29' W 074°00'4 5.5
2014-Aug-24 06:33N 40°25' W 073°60'2 0.7
2014-Aug-24 04:07N 40°26' W 073°59'3 1.2
2014-Aug-24 01:26N 40°23' W 073°59'6 6.3
2014-Aug-24 00:29N 40°29' W 074°01'4 0.2
2014-Aug-23 03:31N 40°25' W 073°60'2 1.4
2014-Aug-23 02:14N 40°23' W 073°59'1 1.3
2014-Aug-23 01:24N 40°24' W 073°59'4 4.3
2014-Aug-23 00:25N 40°28' W 074°01'3 3.0
2014-Aug-22 23:33N 40°26' W 073°59'2 1.4
2014-Aug-22 22:29N 40°26' W 074°00'3 1.4
2014-Aug-22 20:27N 40°23' W 073°60'6 6.5
2014-Aug-22 19:31N 40°29' W 074°00'0 0.1
2014-Aug-22 18:22N 40°29' W 074°01'2 1.2
2014-Aug-22 16:27N 40°27' W 074°01'2 1.8
2014-Aug-22 15:28N 40°26' W 073°59'2 1.5
2014-Aug-22 14:19N 40°25' W 073°60'2 1.6
2014-Aug-22 13:15N 40°23' W 073°60'6 5.8
2014-Aug-22 12:16N 40°29' W 074°01'3 3.7
2014-Aug-22 11:33N 40°27' W 073°59'2 2.3
2014-Aug-22 10:27N 40°25' W 073°60'0 0.1
2014-Aug-22 06:06N 40°25' W 074°00'2 1.1
2014-Aug-22 04:22N 40°26' W 073°59'2 2.8
2014-Aug-22 03:31N 40°28' W 074°01'4 4.5
2014-Aug-22 02:33N 40°24' W 073°59'1 1.1
2014-Aug-22 01:33N 40°23' W 073°60'5 5.3
2014-Aug-22 00:33N 40°28' W 074°01'2 1.9
2014-Aug-21 23:33N 40°28' W 073°59'3 3.0
2014-Aug-21 22:33N 40°25' W 073°60'1 1.2
2014-Aug-21 21:31N 40°24' W 073°59'1 0.7
2014-Aug-21 20:13N 40°23' W 073°59'5 2.9
2014-Aug-21 18:33N 40°28' W 073°59'3 1.5
2014-Aug-21 16:28N 40°25' W 073°60'3 3.2
2014-Aug-21 15:29N 40°22' W 073°59'0 0.0
2014-Aug-21 14:33N 40°22' W 073°59'0 0.0
2014-Aug-21 13:31N 40°22' W 073°59'0 0.0
2014-Aug-21 12:17N 40°22' W 073°59'0 0.0
2014-Aug-21 11:33N 40°22' W 073°59'0 0.0
2014-Aug-21 10:32N 40°22' W 073°59'0 0.0
2014-Aug-21 09:30N 40°22' W 073°59'0 0.0
2014-Aug-21 08:32N 40°22' W 073°59'0 0.0
2014-Aug-21 07:33N 40°22' W 073°59'0 0.0
2014-Aug-21 06:33N 40°22' W 073°59'0 0.0
2014-Aug-21 05:33N 40°22' W 073°59'0 0.0
2014-Aug-21 04:27N 40°22' W 073°59'0 0.0
2014-Aug-21 03:20N 40°22' W 073°59'0 0.0
2014-Aug-21 02:33N 40°22' W 073°59'0 0.0
2014-Aug-21 01:33N 40°22' W 073°59'0 0.0
2014-Aug-21 00:33N 40°22' W 073°59'0 0.0
2014-Aug-20 23:10N 40°22' W 073°59'0 0.0
2014-Aug-20 22:31N 40°22' W 073°59'2 1.5
2014-Aug-20 21:26N 40°23' W 073°59'5 4.7
2014-Aug-20 20:27N 40°28' W 073°59'2 1.8
2014-Aug-20 19:31N 40°29' W 074°01'4 3.6
2014-Aug-20 18:22N 40°25' W 073°60'3 0.5
2014-Aug-20 12:25N 40°22' W 073°59'0 0.0
2014-Aug-20 11:23N 40°22' W 073°59'0 0.0
2014-Aug-20 10:31N 40°22' W 073°59'0 0.2
2014-Aug-20 09:33N 40°22' W 073°59'6 5.9
2014-Aug-20 08:33N 40°27' W 074°01'2 2.3
2014-Aug-20 07:34N 40°26' W 073°59'  

Dump ship's entire track history